Terminal Aerodrome Forecast
Issued by NWS

Home | Current Version | Previous Version | Text Only | Print | Product List | Glossary On
Versions: 1 2 3 4 5 6 7 8 9 10 11 12
000
FTUS44 KSJT 172337
TAFBBD
TAF
KBBD 172337Z 1800/1824 19006KT P6SM SCT010 BKN250
     FM180600 13004KT P6SM OVC007
     FM180900 14003KT 1 1/2SM BR OVC004
     FM181200 11003KT 1 1/2SM BR OVC001
     FM181800 14005KT 4SM BR OVC001
     FM182100 18004KT P6SM OVC004
      AMD NOT SKED=

USA.gov is the U.S. government's official web portal to all federal, state and local government web resources and services.